createdAt,value
2023-01-13T00:00:21.969Z,3.55
2023-01-13T00:02:51.719Z,1.00
2023-01-13T00:05:18.702Z,3.17
2023-01-13T00:08:38.147Z,1.75
2023-01-13T00:11:11.764Z,3.17
2023-01-13T00:13:40.815Z,2.00
2023-01-13T00:16:13.300Z,4.82
2023-01-13T00:18:41.566Z,2.85
2023-01-13T00:21:22.983Z,3.05
2023-01-13T00:23:52.181Z,3.92
2023-01-13T00:26:35.693Z,3.35
2023-01-13T00:31:32.977Z,1.25
2023-01-13T00:34:12.976Z,6.20
2023-01-13T00:37:32.333Z,3.47
2023-01-13T00:45:53.727Z,2.97
2023-01-13T01:28:39.923Z,5.47
2023-01-13T01:35:08.821Z,4.30
2023-01-13T01:45:47.970Z,2.42
2023-01-13T01:57:17.617Z,1.52
2023-01-13T02:04:19.625Z,3.00
2023-01-13T02:08:00.761Z,4.00
2023-01-13T02:25:29.717Z,2.50
2023-01-13T03:08:57.279Z,1.17
2023-01-13T03:16:56.769Z,2.50
2023-01-13T03:32:31.576Z,3.58
2023-01-13T03:35:34.312Z,3.30
2023-01-13T03:41:42.773Z,1.45
2023-01-13T04:01:34.908Z,1.70
2023-01-13T04:05:21.655Z,1.90
2023-01-13T04:13:34.808Z,4.53
2023-01-13T04:16:12.206Z,2.72
2023-01-13T04:18:52.139Z,3.10
2023-01-13T04:32:59.493Z,1.63
2023-01-13T06:01:32.846Z,5.07
2023-01-13T06:04:06.272Z,4.07
2023-01-13T06:06:46.449Z,1.85
2023-01-13T06:09:32.364Z,2.17
2023-01-13T06:14:46.307Z,2.88
2023-01-13T06:17:42.162Z,3.00
2023-01-13T06:20:28.117Z,6.57
2023-01-13T06:26:09.446Z,3.35
2023-01-13T06:28:45.133Z,2.45
2023-01-13T06:31:22.714Z,3.33
2023-01-13T06:36:45.004Z,2.28
2023-01-13T06:39:17.193Z,3.55
2023-01-13T06:42:12.915Z,2.70
2023-01-13T06:44:50.645Z,3.35
2023-01-13T06:47:30.195Z,1.95
2023-01-13T06:52:33.102Z,2.33
2023-01-13T06:57:34.986Z,2.28
2023-01-13T07:00:04.658Z,3.75
2023-01-13T07:02:39.799Z,7.20
2023-01-13T07:05:24.306Z,2.90
2023-01-13T07:07:52.991Z,3.83
2023-01-13T07:10:26.932Z,2.88
2023-01-13T07:13:12.055Z,3.50
2023-01-13T07:15:39.233Z,3.25
2023-01-13T07:18:11.780Z,3.83
2023-01-13T07:20:56.185Z,2.28
2023-01-13T07:23:33.027Z,2.70
2023-01-13T07:26:09.733Z,4.65
2023-01-13T07:28:50.638Z,2.33
2023-01-13T07:34:00.337Z,1.75
2023-01-13T07:36:30.732Z,4.07
2023-01-13T07:39:04.391Z,2.03
2023-01-13T07:41:53.590Z,5.43
2023-01-13T07:44:29.059Z,3.00
2023-01-13T07:49:55.976Z,4.35
2023-01-13T07:52:29.453Z,3.20
2023-01-13T07:54:59.462Z,3.28
2023-01-13T07:57:39.276Z,3.25
2023-01-13T08:00:13.049Z,4.57
2023-01-13T08:02:52.908Z,9.70
2023-01-13T08:05:20.184Z,5.37
2023-01-13T08:07:48.969Z,3.92
2023-01-13T08:10:22.292Z,2.85
2023-01-13T08:15:51.486Z,5.53
2023-01-13T08:18:22.125Z,3.95
2023-01-13T08:23:16.758Z,4.60
2023-01-13T08:25:54.407Z,2.60
2023-01-13T08:28:25.849Z,2.40
2023-01-13T08:30:59.248Z,2.70
2023-01-13T08:33:38.306Z,4.97
2023-01-13T08:36:15.464Z,2.75
2023-01-13T08:41:52.723Z,3.60
2023-01-13T08:44:34.263Z,2.65
2023-01-13T08:47:06.951Z,6.28
2023-01-13T08:49:42.722Z,5.03
2023-01-13T08:52:15.063Z,3.40
2023-01-13T08:54:44.901Z,3.13
2023-01-13T08:57:23.352Z,4.00
2023-01-13T08:59:56.089Z,4.05
2023-01-13T09:02:35.593Z,8.65
2023-01-13T09:05:10.736Z,3.97
2023-01-13T09:16:26.750Z,3.20
2023-01-13T10:07:18.121Z,4.10
2023-01-13T10:09:51.239Z,8.02
2023-01-13T10:12:41.422Z,5.88
2023-01-13T10:15:15.827Z,3.92
2023-01-13T10:17:45.321Z,3.08
2023-01-13T10:20:36.307Z,2.95
2023-01-13T10:23:11.297Z,2.10
2023-01-13T10:26:15.504Z,2.80
2023-01-13T10:28:42.080Z,2.30
2023-01-13T10:31:12.504Z,1.77
2023-01-13T10:33:47.204Z,2.15
2023-01-13T10:36:29.276Z,3.30
2023-01-13T10:39:09.430Z,2.30
2023-01-13T10:41:36.221Z,3.15
2023-01-13T10:44:17.537Z,4.05
2023-01-13T10:49:36.146Z,1.80
2023-01-13T10:52:04.455Z,1.55
2023-01-13T10:54:31.473Z,2.92
2023-01-13T10:57:22.493Z,4.22
2023-01-13T10:59:49.321Z,1.67
2023-01-13T11:02:36.723Z,4.65
2023-01-13T11:05:21.022Z,1.98
2023-01-13T11:13:23.193Z,2.00
2023-01-13T11:15:56.189Z,3.92
2023-01-13T11:19:14.108Z,5.60
2023-01-13T11:21:46.799Z,4.30
2023-01-13T11:24:37.693Z,2.60
2023-01-13T11:27:07.427Z,4.10
2023-01-13T11:32:34.440Z,1.23
2023-01-13T11:37:52.534Z,2.25
2023-01-13T11:40:34.208Z,3.55
2023-01-13T11:43:45.443Z,2.72
2023-01-13T11:46:17.597Z,2.63
2023-01-13T11:58:09.321Z,2.70
2023-01-13T12:00:57.923Z,3.97
2023-01-13T12:03:40.155Z,4.20
2023-01-13T12:06:27.675Z,5.10
2023-01-13T12:09:44.782Z,2.30
2023-01-13T12:12:37.630Z,3.63
2023-01-13T12:15:15.203Z,3.70
2023-01-13T12:18:19.692Z,6.60
2023-01-13T12:20:55.545Z,4.30
2023-01-13T12:23:36.465Z,3.35
2023-01-13T12:27:12.501Z,4.45
2023-01-13T12:29:42.678Z,3.53
2023-01-13T12:32:17.939Z,3.05
2023-01-13T12:35:18.122Z,2.72
2023-01-13T12:38:06.998Z,4.85
2023-01-13T12:40:42.208Z,7.40
2023-01-13T12:43:38.179Z,5.68
2023-01-13T12:50:45.498Z,4.20
2023-01-13T12:53:47.487Z,4.25
2023-01-13T12:56:38.734Z,5.75
2023-01-13T12:59:28.394Z,5.78
2023-01-13T13:02:35.464Z,4.38
2023-01-13T13:05:15.376Z,4.25
2023-01-13T13:07:46.504Z,4.30
2023-01-13T13:10:56.140Z,6.40
2023-01-13T13:13:43.521Z,4.28
2023-01-13T13:16:29.456Z,5.10
2023-01-13T13:19:17.704Z,3.50
2023-01-13T13:22:25.987Z,5.80
2023-01-13T13:24:52.405Z,5.97
2023-01-13T13:27:31.933Z,3.75
2023-01-13T13:30:14.293Z,6.78
2023-01-13T13:33:04.560Z,7.53
2023-01-13T13:36:08.469Z,4.22
2023-01-13T13:39:22.087Z,8.60
2023-01-13T13:42:38.153Z,6.32
2023-01-13T13:45:40.059Z,7.05
2023-01-13T13:51:46.728Z,6.30
2023-01-13T13:54:19.867Z,6.35
2023-01-13T13:56:50.213Z,5.47
2023-01-13T13:59:30.778Z,4.60
2023-01-13T14:03:05.071Z,7.05
2023-01-13T14:06:34.539Z,5.88
2023-01-13T14:09:35.551Z,4.50
2023-01-13T14:12:47.635Z,3.65
2023-01-13T14:15:56.327Z,6.55
2023-01-13T14:18:23.295Z,5.57
2023-01-13T14:21:28.810Z,5.03
2023-01-13T14:24:10.644Z,5.97
2023-01-13T14:26:37.175Z,2.78
2023-01-13T14:29:06.346Z,7.40
2023-01-13T14:31:43.399Z,7.55
2023-01-13T14:34:32.911Z,7.03
2023-01-13T14:37:23.541Z,6.82
2023-01-13T14:40:29.824Z,7.72
2023-01-13T14:46:10.062Z,7.60
2023-01-13T14:51:45.087Z,9.70
2023-01-13T14:55:06.855Z,5.80
2023-01-13T15:00:51.956Z,4.82
2023-01-13T15:03:34.352Z,10.10
2023-01-13T15:06:29.411Z,5.40
2023-01-13T15:11:42.660Z,10.23
2023-01-13T15:14:41.460Z,6.57
2023-01-13T15:17:26.371Z,5.35
2023-01-13T15:19:56.421Z,6.43
2023-01-13T15:28:21.412Z,6.15
2023-01-13T15:36:44.954Z,3.50
2023-01-13T15:39:26.639Z,3.45
2023-01-13T15:42:30.474Z,6.53
2023-01-13T15:48:54.729Z,6.32
2023-01-13T15:51:58.836Z,3.33
2023-01-13T16:03:33.877Z,10.45
2023-01-13T16:06:54.563Z,5.25
2023-01-13T16:10:29.963Z,6.28
2023-01-13T16:13:00.159Z,6.53
2023-01-13T16:16:33.067Z,4.15
2023-01-13T16:19:26.554Z,8.13
2023-01-13T16:21:59.693Z,6.10
2023-01-13T16:24:32.221Z,8.85
2023-01-13T16:27:34.014Z,7.30
2023-01-13T16:32:35.537Z,5.85
2023-01-13T16:35:12.506Z,8.50
2023-01-13T16:38:01.684Z,9.80
2023-01-13T16:40:37.127Z,9.25
2023-01-13T16:49:41.858Z,6.00
2023-01-13T17:37:49.788Z,7.68
2023-01-13T17:41:58.510Z,5.70
2023-01-13T18:11:59.937Z,12.55
2023-01-13T18:50:20.582Z,14.15
2023-01-13T19:02:15.461Z,11.18
2023-01-13T19:05:53.571Z,11.02
2023-01-13T19:16:08.340Z,10.23
2023-01-13T19:18:52.697Z,8.27
2023-01-13T19:25:37.122Z,10.52
2023-01-13T19:37:54.989Z,9.40
2023-01-13T19:43:39.206Z,8.25
2023-01-13T19:49:54.513Z,11.05
2023-01-13T19:52:31.399Z,7.65
2023-01-13T19:59:20.611Z,7.35
2023-01-13T20:05:25.153Z,10.30
2023-01-13T20:14:31.563Z,8.63
2023-01-13T20:17:14.013Z,13.38
2023-01-13T20:20:01.047Z,8.90
2023-01-13T20:23:17.665Z,12.95
2023-01-13T20:26:03.097Z,8.25
2023-01-13T20:28:49.991Z,8.93
2023-01-13T20:31:23.586Z,5.80
2023-01-13T20:34:49.344Z,8.85
2023-01-13T20:37:31.339Z,18.15
2023-01-13T20:43:44.539Z,9.63
2023-01-13T20:46:28.983Z,10.07
2023-01-13T20:49:38.492Z,13.95
2023-01-13T20:52:15.158Z,10.50
2023-01-13T21:01:17.087Z,7.95
2023-01-13T21:04:05.319Z,6.43
2023-01-13T21:07:07.365Z,8.27
2023-01-13T21:09:39.582Z,6.70
2023-01-13T21:12:43.457Z,10.60
2023-01-13T21:15:26.124Z,8.15
2023-01-13T21:22:14.648Z,7.70
2023-01-13T21:25:07.720Z,8.85
2023-01-13T21:30:33.085Z,7.53
2023-01-13T21:33:10.587Z,8.40
2023-01-13T21:38:39.624Z,11.70
2023-01-13T21:41:40.321Z,7.43
2023-01-13T21:44:57.081Z,9.65
2023-01-13T21:50:40.837Z,7.50
2023-01-13T21:53:36.417Z,6.78
2023-01-13T21:56:26.739Z,7.32
2023-01-13T21:59:02.360Z,12.23
2023-01-13T22:04:27.796Z,9.02
2023-01-13T22:10:15.362Z,9.55
2023-01-13T22:12:53.958Z,11.27
2023-01-13T22:18:24.953Z,5.65
2023-01-13T22:21:15.854Z,7.88
2023-01-13T22:24:09.855Z,10.15
2023-01-13T22:26:54.432Z,9.82
2023-01-13T22:29:55.611Z,17.45
2023-01-13T22:32:32.105Z,7.13
2023-01-13T22:35:22.126Z,6.68
2023-01-13T22:40:42.026Z,9.77
2023-01-13T22:43:23.994Z,6.13
2023-01-13T22:54:17.227Z,6.13
2023-01-13T22:56:49.386Z,10.52
2023-01-13T22:59:29.513Z,8.85
2023-01-13T23:02:08.243Z,8.25
2023-01-13T23:04:48.007Z,7.18
2023-01-13T23:07:41.685Z,10.75
2023-01-13T23:10:22.783Z,8.68
2023-01-13T23:12:53.932Z,5.82
2023-01-13T23:15:31.572Z,5.90
2023-01-13T23:18:13.038Z,5.15
2023-01-13T23:20:56.919Z,9.57
2023-01-13T23:23:31.064Z,7.53
2023-01-13T23:26:04.560Z,5.18
2023-01-13T23:28:50.479Z,10.68
2023-01-13T23:31:25.741Z,7.75
2023-01-13T23:36:34.885Z,11.10
2023-01-13T23:39:14.833Z,7.32
2023-01-13T23:41:55.092Z,8.93
2023-01-13T23:44:31.053Z,4.97
2023-01-13T23:47:16.145Z,6.55
2023-01-13T23:49:49.985Z,3.55
2023-01-13T23:52:24.180Z,4.05
2023-01-13T23:57:41.397Z,8.80
